Terminal Aerodrome Forecast
Issued by NWS Missoula, MT

Home | Current Version | Previous Version | Text Only | Print | Product List | Glossary On
Versions: 1 2 3 4 5 6 7 8 9 10 11 12 13 14 15 16 17
000
FTUS45 KMSO 012321
TAFGPI
TAF
KGPI 012321Z 0200/0224 20010KT P6SM SCT120
     FM020200 VRB05KT P6SM BKN100
     FM022000 20013G23KT P6SM VCSH OVC070=

USA.gov is the U.S. government's official web portal to all federal, state and local government web resources and services.